Ocean Winner — A8PV2 — position and weather

sailwx.info

Track history (hours):
 
Tides and Currents Weather Stations Pressure Air Temp Water Temp Dewpoint Dewpoint Depression Visibility Wind Speed Wind Dir Waves Ship Positions

Ocean Winner

Last reported at 2017-Oct-25 12:13 UTC. Time now 2017-Nov-23 01:54 UTC.
Position N 36°07' E 014°42'.
Warning: this ship's position is 28 days out of date.

Length 116 m; draft 5.1 m.

Type: Cargo ship. MMSI: 636013840.

Date/timePositionNaut miles runAvg speedWind from/ knotsBaromVisibWave heightAir tempDewpointWater temp
2017-Oct-25 12:13N 36°07' E 014°42'210.8
2017-Oct-25 11:59N 36°08' E 014°39'510.7
2017-Oct-25 11:30N 36°09' E 014°33'611.0
2017-Oct-25 11:00N 36°11' E 014°26'611.0
2017-Oct-25 10:30N 36°13' E 014°20'510.8
2017-Oct-25 10:00N 36°14' E 014°14'610.6
2017-Oct-25 09:25N 36°17' E 014°06'511.1
2017-Oct-25 09:00N 36°19' E 014°01'611.2
2017-Oct-25 08:30N 36°21' E 013°55'611.1
2017-Oct-25 08:00N 36°23' E 013°49'  
2017-Oct-21 16:22N 35°58' W 005°15'512.6
2017-Oct-21 16:00N 35°58' W 005°21'15110.2
2017-Oct-21 01:12N 36°23' W 008°26'610.5
2017-Oct-21 00:36N 36°24' W 008°34'110.5
2017-Oct-21 00:31N 36°24' W 008°35'710.8
2017-Oct-20 23:50N 36°26' W 008°44'410.3
2017-Oct-20 23:24N 36°27' W 008°49'410.7
2017-Oct-20 23:00N 36°29' W 008°54'511.0
2017-Oct-20 22:30N 36°30' W 009°01'611.0
2017-Oct-20 22:01N 36°31' W 009°07'811.0
2017-Oct-20 21:19N 36°34' W 009°16'411.1
2017-Oct-20 21:00N 36°36' W 009°19'711.1
2017-Oct-20 20:22N 36°41' W 009°25'411.4
2017-Oct-20 20:00N 36°44' W 009°29'7710.4
2017-Oct-20 12:39N 37°58' W 009°54'210.5
2017-Oct-20 12:26N 38°00' W 009°54'610.7
2017-Oct-20 11:51N 38°07' W 009°56'510.5
2017-Oct-20 11:24N 38°11' W 009°58'410.7
2017-Oct-20 11:00N 38°15' W 009°59'510.4
2017-Oct-20 10:30N 38°20' W 009°60'510.2
2017-Oct-20 10:00N 38°25' W 010°01'5 9.9
2017-Oct-20 09:30N 38°30' W 010°03'5 9.8
2017-Oct-20 09:00N 38°35' W 010°04'5 9.9
2017-Oct-20 08:31N 38°40' W 010°06'5 9.6
2017-Oct-20 08:00N 38°44' W 010°07'5 9.8
2017-Oct-20 07:30N 38°49' W 010°08'510.1
2017-Oct-20 07:01N 38°54' W 010°08'510.1
2017-Oct-20 06:31N 38°59' W 010°08'510.7
2017-Oct-20 06:00N 39°05' W 010°08'510.8
2017-Oct-20 05:31N 39°10' W 010°08'510.5
2017-Oct-20 05:00N 39°15' W 010°08'  
2017-Oct-17 10:34N 49°08' W 005°15'1 3.2
2017-Oct-17 10:17N 49°08' W 005°14'3 9.8
2017-Oct-17 09:58N 49°10' W 005°09'510.1
2017-Oct-17 09:30N 49°12' W 005°03'5 9.8
2017-Oct-17 08:56N 49°15' W 004°56'7 9.7
2017-Oct-17 08:11N 49°19' W 004°46'5 9.4
2017-Oct-17 07:36N 49°21' W 004°39'11 8.6
2017-Oct-17 06:19N 49°27' W 004°24'5 7.3
2017-Oct-17 05:34N 49°29' W 004°17'13 6.0
2017-Oct-17 03:26N 49°35' W 003°59'10 5.2
2017-Oct-17 01:29N 49°40' W 003°46'12 6.7
2017-Oct-16 23:44N 49°46' W 003°31'2 7.7
2017-Oct-16 23:30N 49°47' W 003°28'4 7.7
2017-Oct-16 23:00N 49°49' W 003°23'4 7.8
2017-Oct-16 22:30N 49°51' W 003°18'4 7.4
2017-Oct-16 22:00N 49°53' W 003°13'4 7.6
2017-Oct-16 21:30N 49°54' W 003°08'4 7.3
2017-Oct-16 21:01N 49°56' W 003°02'3 6.9
2017-Oct-16 20:30N 49°57' W 002°57'3 6.1
2017-Oct-16 20:00N 49°58' W 002°53'3 5.1
2017-Oct-16 19:30N 49°60' W 002°49'2 4.4
2017-Oct-16 19:00N 50°01' W 002°47'2 3.9
2017-Oct-16 18:23N 50°02' W 002°43'69 7.7
2017-Oct-16 09:25N 50°21' W 001°00'510.5
2017-Oct-16 08:57N 50°23' W 000°53'4 9.6
2017-Oct-16 08:30N 50°24' W 000°47'6 9.0
2017-Oct-16 07:52N 50°25' W 000°38'6 8.6
2017-Oct-16 07:13N 50°27' W 000°29'2 8.4
2017-Oct-16 07:00N 50°27' W 000°27'4 8.4
2017-Oct-16 06:30N 50°28' W 000°20'4 8.3
2017-Oct-16 06:00N 50°29' W 000°14'4 7.1
2017-Oct-16 05:30N 50°30' W 000°09'3 6.9
2017-Oct-16 05:01N 50°31' W 000°03'4 7.1
2017-Oct-16 04:30N 50°32' E 000°02'4 7.4
2017-Oct-16 04:00N 50°33' E 000°08'4 7.7
2017-Oct-16 03:31N 50°34' E 000°14'4 8.1
2017-Oct-16 03:00N 50°35' E 000°20'4 8.6
2017-Oct-16 02:30N 50°37' E 000°26'4 8.9
2017-Oct-16 02:00N 50°38' E 000°33'5 9.0
2017-Oct-16 01:30N 50°40' E 000°39'4 8.9
2017-Oct-16 01:00N 50°43' E 000°45'4 8.9
2017-Oct-16 00:31N 50°46' E 000°50'4 8.4
2017-Oct-16 00:00N 50°48' E 000°56'4 8.0
2017-Oct-15 23:27N 50°51' E 001°01'4 7.6
2017-Oct-15 22:58N 50°53' E 001°06'3 7.2
2017-Oct-15 22:30N 50°55' E 001°10'3 6.9
2017-Oct-15 22:00N 50°57' E 001°14'3 6.3
2017-Oct-15 21:30N 50°59' E 001°18'3 6.0
2017-Oct-15 21:01N 51°01' E 001°22'3 5.8
2017-Oct-15 20:31N 51°03' E 001°25'3 6.0
2017-Oct-15 20:00N 51°05' E 001°29'3 6.1
2017-Oct-15 19:30N 51°07' E 001°32'3 6.5
2017-Oct-15 19:00N 51°09' E 001°36'4 7.2
2017-Oct-15 18:31N 51°12' E 001°41'4 7.8
2017-Oct-15 18:00N 51°14' E 001°45'4 8.6
2017-Oct-15 17:31N 51°18' E 001°48'4 8.7
2017-Oct-15 17:01N 51°22' E 001°51'4 8.8
2017-Oct-15 16:30N 51°26' E 001°55'4 8.8
2017-Oct-15 16:00N 51°29' E 001°60'4 8.4
2017-Oct-15 15:31N 51°32' E 002°04'4 8.1
2017-Oct-15 15:00N 51°35' E 002°09'8 7.7
2017-Oct-15 14:00N 51°41' E 002°17'4 7.4
2017-Oct-15 13:31N 51°44' E 002°20'4 7.2
2017-Oct-15 13:00N 51°47' E 002°24'4 7.0
2017-Oct-15 12:29N 51°50' E 002°28'  
Track history (hours):
 
Tides and Currents Weather Stations Pressure Air Temp Water Temp Dewpoint Dewpoint Depression Visibility Wind Speed Wind Dir Waves Ship Positions

Ocean Winner

Last reported at 2017-Oct-25 12:13 UTC. Time now 2017-Nov-23 01:54 UTC.
Position N 36°07' E 014°42'.
Warning: this ship's position is 28 days out of date.

Length 116 m; draft 5.1 m.

Type: Cargo ship. MMSI: 636013840.

Date/timePositionNaut miles runAvg speedWind from/ knotsBaromVisibWave heightAir tempDewpointWater temp
2017-Oct-25 12:13N 36°07' E 014°42'210.8
2017-Oct-25 11:59N 36°08' E 014°39'510.7
2017-Oct-25 11:30N 36°09' E 014°33'611.0
2017-Oct-25 11:00N 36°11' E 014°26'611.0
2017-Oct-25 10:30N 36°13' E 014°20'510.8
2017-Oct-25 10:00N 36°14' E 014°14'610.6
2017-Oct-25 09:25N 36°17' E 014°06'511.1
2017-Oct-25 09:00N 36°19' E 014°01'611.2
2017-Oct-25 08:30N 36°21' E 013°55'611.1
2017-Oct-25 08:00N 36°23' E 013°49'  
2017-Oct-21 16:22N 35°58' W 005°15'512.6
2017-Oct-21 16:00N 35°58' W 005°21'15110.2
2017-Oct-21 01:12N 36°23' W 008°26'610.5
2017-Oct-21 00:36N 36°24' W 008°34'110.5
2017-Oct-21 00:31N 36°24' W 008°35'710.8
2017-Oct-20 23:50N 36°26' W 008°44'410.3
2017-Oct-20 23:24N 36°27' W 008°49'410.7
2017-Oct-20 23:00N 36°29' W 008°54'511.0
2017-Oct-20 22:30N 36°30' W 009°01'611.0
2017-Oct-20 22:01N 36°31' W 009°07'811.0
2017-Oct-20 21:19N 36°34' W 009°16'411.1
2017-Oct-20 21:00N 36°36' W 009°19'711.1
2017-Oct-20 20:22N 36°41' W 009°25'411.4
2017-Oct-20 20:00N 36°44' W 009°29'7710.4
2017-Oct-20 12:39N 37°58' W 009°54'210.5
2017-Oct-20 12:26N 38°00' W 009°54'610.7
2017-Oct-20 11:51N 38°07' W 009°56'510.5
2017-Oct-20 11:24N 38°11' W 009°58'410.7
2017-Oct-20 11:00N 38°15' W 009°59'510.4
2017-Oct-20 10:30N 38°20' W 009°60'510.2
2017-Oct-20 10:00N 38°25' W 010°01'5 9.9
2017-Oct-20 09:30N 38°30' W 010°03'5 9.8
2017-Oct-20 09:00N 38°35' W 010°04'5 9.9
2017-Oct-20 08:31N 38°40' W 010°06'5 9.6
2017-Oct-20 08:00N 38°44' W 010°07'5 9.8
2017-Oct-20 07:30N 38°49' W 010°08'510.1
2017-Oct-20 07:01N 38°54' W 010°08'510.1
2017-Oct-20 06:31N 38°59' W 010°08'510.7
2017-Oct-20 06:00N 39°05' W 010°08'510.8
2017-Oct-20 05:31N 39°10' W 010°08'510.5
2017-Oct-20 05:00N 39°15' W 010°08'  
2017-Oct-17 10:34N 49°08' W 005°15'1 3.2
2017-Oct-17 10:17N 49°08' W 005°14'3 9.8
2017-Oct-17 09:58N 49°10' W 005°09'510.1
2017-Oct-17 09:30N 49°12' W 005°03'5 9.8
2017-Oct-17 08:56N 49°15' W 004°56'7 9.7
2017-Oct-17 08:11N 49°19' W 004°46'5 9.4
2017-Oct-17 07:36N 49°21' W 004°39'11 8.6
2017-Oct-17 06:19N 49°27' W 004°24'5 7.3
2017-Oct-17 05:34N 49°29' W 004°17'13 6.0
2017-Oct-17 03:26N 49°35' W 003°59'10 5.2
2017-Oct-17 01:29N 49°40' W 003°46'12 6.7
2017-Oct-16 23:44N 49°46' W 003°31'2 7.7
2017-Oct-16 23:30N 49°47' W 003°28'4 7.7
2017-Oct-16 23:00N 49°49' W 003°23'4 7.8
2017-Oct-16 22:30N 49°51' W 003°18'4 7.4
2017-Oct-16 22:00N 49°53' W 003°13'4 7.6
2017-Oct-16 21:30N 49°54' W 003°08'4 7.3
2017-Oct-16 21:01N 49°56' W 003°02'3 6.9
2017-Oct-16 20:30N 49°57' W 002°57'3 6.1
2017-Oct-16 20:00N 49°58' W 002°53'3 5.1
2017-Oct-16 19:30N 49°60' W 002°49'2 4.4
2017-Oct-16 19:00N 50°01' W 002°47'2 3.9
2017-Oct-16 18:23N 50°02' W 002°43'69 7.7
2017-Oct-16 09:25N 50°21' W 001°00'510.5
2017-Oct-16 08:57N 50°23' W 000°53'4 9.6
2017-Oct-16 08:30N 50°24' W 000°47'6 9.0
2017-Oct-16 07:52N 50°25' W 000°38'6 8.6
2017-Oct-16 07:13N 50°27' W 000°29'2 8.4
2017-Oct-16 07:00N 50°27' W 000°27'4 8.4
2017-Oct-16 06:30N 50°28' W 000°20'4 8.3
2017-Oct-16 06:00N 50°29' W 000°14'4 7.1
2017-Oct-16 05:30N 50°30' W 000°09'3 6.9
2017-Oct-16 05:01N 50°31' W 000°03'4 7.1
2017-Oct-16 04:30N 50°32' E 000°02'4 7.4
2017-Oct-16 04:00N 50°33' E 000°08'4 7.7
2017-Oct-16 03:31N 50°34' E 000°14'4 8.1
2017-Oct-16 03:00N 50°35' E 000°20'4 8.6
2017-Oct-16 02:30N 50°37' E 000°26'4 8.9
2017-Oct-16 02:00N 50°38' E 000°33'5 9.0
2017-Oct-16 01:30N 50°40' E 000°39'4 8.9
2017-Oct-16 01:00N 50°43' E 000°45'4 8.9
2017-Oct-16 00:31N 50°46' E 000°50'4 8.4
2017-Oct-16 00:00N 50°48' E 000°56'4 8.0
2017-Oct-15 23:27N 50°51' E 001°01'4 7.6
2017-Oct-15 22:58N 50°53' E 001°06'3 7.2
2017-Oct-15 22:30N 50°55' E 001°10'3 6.9
2017-Oct-15 22:00N 50°57' E 001°14'3 6.3
2017-Oct-15 21:30N 50°59' E 001°18'3 6.0
2017-Oct-15 21:01N 51°01' E 001°22'3 5.8
2017-Oct-15 20:31N 51°03' E 001°25'3 6.0
2017-Oct-15 20:00N 51°05' E 001°29'3 6.1
2017-Oct-15 19:30N 51°07' E 001°32'3 6.5
2017-Oct-15 19:00N 51°09' E 001°36'4 7.2
2017-Oct-15 18:31N 51°12' E 001°41'4 7.8
2017-Oct-15 18:00N 51°14' E 001°45'4 8.6
2017-Oct-15 17:31N 51°18' E 001°48'4 8.7
2017-Oct-15 17:01N 51°22' E 001°51'4 8.8
2017-Oct-15 16:30N 51°26' E 001°55'4 8.8
2017-Oct-15 16:00N 51°29' E 001°60'4 8.4
2017-Oct-15 15:31N 51°32' E 002°04'4 8.1
2017-Oct-15 15:00N 51°35' E 002°09'8 7.7
2017-Oct-15 14:00N 51°41' E 002°17'4 7.4
2017-Oct-15 13:31N 51°44' E 002°20'4 7.2
2017-Oct-15 13:00N 51°47' E 002°24'4 7.0
2017-Oct-15 12:29N 51°50' E 002°28'  

Dump ship's entire track history